Time;durP1;ratioP1;P1;durP2;ratioP2;P2;SDS_P1;SDS_P2;PMS_P1;PMS_P2;Temp;Humidity;BMP_temperature;BMP_pressure;BME280_temperature;BME280_humidity;BME280_pressure;Samples;Min_cycle;Max_cycle;Signal;HPM_P1;HPM_P2
2022/07/25 00:00:28;;;;;;;3.40;3.10;;;25.20;99.90;;;;;;4844900;29;20086;-33
2022/07/25 00:02:53;;;;;;;4.72;2.75;;;25.10;99.90;;;;;;4843437;29;20038;-38
2022/07/25 00:05:19;;;;;;;2.75;2.55;;;25.10;99.90;;;;;;4836190;29;20065;-39
2022/07/25 00:07:45;;;;;;;4.57;3.28;;;25.10;99.90;;;;;;4835506;29;20034;-34
2022/07/25 00:10:11;;;;;;;4.65;3.25;;;25.10;99.90;;;;;;4829486;29;20081;-36
2022/07/25 00:12:37;;;;;;;3.25;2.83;;;25.20;99.90;;;;;;4847479;29;20064;-35
2022/07/25 00:15:03;;;;;;;7.10;2.67;;;25.20;99.90;;;;;;4842328;29;20380;-35
2022/07/25 00:17:29;;;;;;;3.05;2.75;;;25.10;99.90;;;;;;4848109;29;20037;-38
2022/07/25 00:19:54;;;;;;;4.97;3.05;;;25.10;99.90;;;;;;4846726;29;20089;-32
2022/07/25 00:22:20;;;;;;;3.00;2.80;;;25.00;99.90;;;;;;4842702;29;20480;-36
2022/07/25 00:24:46;;;;;;;7.80;3.58;;;25.00;99.90;;;;;;4845429;29;20034;-34
2022/07/25 00:27:11;;;;;;;6.97;3.38;;;24.90;99.90;;;;;;4835097;29;20495;-35
2022/07/25 00:29:37;;;;;;;4.65;3.13;;;24.90;99.90;;;;;;4843743;29;20022;-39
2022/07/25 00:32:03;;;;;;;3.60;3.20;;;24.80;99.90;;;;;;4856142;29;20471;-35
2022/07/25 00:34:28;;;;;;;3.33;2.83;;;24.80;99.90;;;;;;4837702;29;20036;-36
2022/07/25 00:36:54;;;;;;;4.68;3.47;;;24.70;99.90;;;;;;4841570;29;20042;-36
2022/07/25 00:39:20;;;;;;;7.28;3.40;;;24.70;99.90;;;;;;4835933;29;20026;-35
2022/07/25 00:41:45;;;;;;;3.00;2.75;;;24.60;99.90;;;;;;4846614;29;20571;-35
2022/07/25 00:44:31;;;;;;;5.53;4.13;;;24.70;99.90;;;;;;4837739;29;20605;-36
2022/07/25 00:46:57;;;;;;;6.82;2.83;;;24.70;99.90;;;;;;4836994;29;20033;-35
2022/07/25 00:49:24;;;;;;;3.67;3.20;;;24.60;99.90;;;;;;4843144;29;20038;-34
2022/07/25 00:51:51;;;;;;;4.13;3.30;;;24.50;99.90;;;;;;4841852;29;20116;-44
2022/07/25 00:54:16;;;;;;;3.72;3.38;;;24.40;99.90;;;;;;4837417;29;20109;-37
2022/07/25 00:56:43;;;;;;;5.13;2.90;;;24.30;99.90;;;;;;4825538;29;20164;-34
2022/07/25 00:59:09;;;;;;;9.90;2.70;;;24.20;99.90;;;;;;4836504;29;20038;-36
2022/07/25 01:01:35;;;;;;;2.72;2.50;;;24.20;99.90;;;;;;4844699;29;20294;-35
2022/07/25 01:04:02;;;;;;;2.60;2.40;;;24.10;99.90;;;;;;4838889;29;20135;-39
2022/07/25 01:06:28;;;;;;;2.92;2.67;;;24.10;99.90;;;;;;4846936;29;20549;-35
2022/07/25 01:08:54;;;;;;;6.35;3.08;;;24.10;99.90;;;;;;4847390;29;20030;-38
2022/07/25 01:11:21;;;;;;;3.85;2.95;;;24.00;99.90;;;;;;4837492;29;20550;-34
2022/07/25 01:13:47;;;;;;;2.95;2.70;;;24.00;99.90;;;;;;4847683;29;20037;-35
2022/07/25 01:16:13;;;;;;;3.58;2.70;;;23.90;99.90;;;;;;4838885;29;20793;-38
2022/07/25 01:18:39;;;;;;;3.85;3.47;;;23.90;99.90;;;;;;4837267;29;20033;-38
2022/07/25 01:21:05;;;;;;;3.25;2.95;;;23.80;99.90;;;;;;4837686;29;20121;-38
2022/07/25 01:23:30;;;;;;;2.90;2.70;;;23.80;99.90;;;;;;4844315;29;20095;-39
2022/07/25 01:25:56;;;;;;;3.97;3.20;;;23.70;99.90;;;;;;4834914;29;20499;-47
2022/07/25 01:28:22;;;;;;;3.72;2.85;;;23.70;99.90;;;;;;4835075;29;20052;-33
2022/07/25 01:30:48;;;;;;;3.80;3.10;;;23.70;99.90;;;;;;4848445;29;20397;-37
2022/07/25 01:33:21;;;;;;;4.03;2.92;;;23.70;99.90;;;;;;4835059;29;20041;-36
2022/07/25 01:35:48;;;;;;;5.32;3.03;;;23.60;99.90;;;;;;4847573;29;20048;-37
2022/07/25 01:38:14;;;;;;;5.53;3.20;;;23.60;99.90;;;;;;4836033;29;20144;-36
2022/07/25 01:40:41;;;;;;;3.08;2.78;;;23.60;99.90;;;;;;4839874;29;20064;-33
2022/07/25 01:43:07;;;;;;;5.78;3.45;;;23.50;99.90;;;;;;4834751;29;20368;-30
2022/07/25 01:45:33;;;;;;;3.45;3.15;;;23.40;99.90;;;;;;4840835;29;20086;-36
2022/07/25 01:47:58;;;;;;;4.53;2.95;;;23.40;99.90;;;;;;4834544;29;20042;-36
2022/07/25 01:50:24;;;;;;;5.18;3.58;;;23.40;99.90;;;;;;4835541;29;20034;-33
2022/07/25 01:52:50;;;;;;;4.80;3.63;;;23.30;99.90;;;;;;4849349;29;20036;-35
2022/07/25 01:55:16;;;;;;;3.30;3.00;;;23.30;99.90;;;;;;4845483;29;20165;-35
2022/07/25 01:57:42;;;;;;;3.55;3.25;;;23.30;99.90;;;;;;4847712;29;20042;-32
2022/07/25 02:00:10;;;;;;;4.15;2.83;;;23.20;99.90;;;;;;4838382;29;20088;-35
2022/07/25 02:02:36;;;;;;;3.70;3.17;;;23.20;99.90;;;;;;4839670;29;20792;-35
2022/07/25 02:05:02;;;;;;;3.97;3.05;;;23.20;99.90;;;;;;4849899;29;20037;-35
2022/07/25 02:07:27;;;;;;;5.65;3.53;;;23.20;99.90;;;;;;4854444;29;20521;-39
2022/07/25 02:09:53;;;;;;;6.65;3.60;;;23.10;99.90;;;;;;4847738;29;20018;-36
2022/07/25 02:12:19;;;;;;;5.60;3.55;;;23.10;99.90;;;;;;4843282;29;20104;-35
2022/07/25 02:14:44;;;;;;;3.15;2.95;;;23.10;99.90;;;;;;4849798;29;20478;-37
2022/07/25 02:17:10;;;;;;;3.17;2.88;;;23.10;99.90;;;;;;4852331;29;20055;-35
2022/07/25 02:19:36;;;;;;;4.13;3.13;;;23.00;99.90;;;;;;4855770;29;20021;-44
2022/07/25 02:22:02;;;;;;;5.78;3.83;;;23.00;99.90;;;;;;4842223;29;20144;-32
2022/07/25 02:24:27;;;;;;;6.75;3.80;;;23.00;99.90;;;;;;4845664;29;20401;-33
2022/07/25 02:26:53;;;;;;;3.63;3.30;;;23.00;99.90;;;;;;4854079;29;20038;-32
2022/07/25 02:29:19;;;;;;;5.40;3.80;;;23.00;99.90;;;;;;4842958;29;20100;-37
2022/07/25 02:31:44;;;;;;;3.45;3.15;;;23.00;99.90;;;;;;4849809;29;20028;-36
2022/07/25 02:34:10;;;;;;;8.60;3.72;;;23.10;99.90;;;;;;4843376;29;20340;-48
2022/07/25 02:36:36;;;;;;;4.53;3.08;;;23.00;99.90;;;;;;4845156;29;20522;-36
2022/07/25 02:39:02;;;;;;;4.82;3.90;;;23.00;99.90;;;;;;4847956;29;20168;-34
2022/07/25 02:41:28;;;;;;;5.00;3.47;;;23.10;99.90;;;;;;4844302;29;20026;-38
2022/07/25 02:43:53;;;;;;;5.68;3.90;;;23.10;99.90;;;;;;4854418;29;20093;-33
2022/07/25 02:46:20;;;;;;;4.30;3.42;;;23.00;99.90;;;;;;4853647;29;20041;-56
2022/07/25 02:48:45;;;;;;;3.20;2.97;;;23.10;99.90;;;;;;4847326;29;20038;-35
2022/07/25 02:51:11;;;;;;;4.53;3.58;;;23.00;99.90;;;;;;4852673;29;20103;-38
2022/07/25 02:53:36;;;;;;;6.40;3.22;;;23.10;99.90;;;;;;4840202;29;20056;-37
2022/07/25 02:56:02;;;;;;;4.05;3.65;;;23.00;99.90;;;;;;4854364;29;20037;-35
2022/07/25 02:58:28;;;;;;;4.30;3.45;;;23.10;99.90;;;;;;4845183;29;20116;-33
2022/07/25 03:00:53;;;;;;;10.35;4.00;;;23.10;99.90;;;;;;4850200;29;20033;-35
2022/07/25 03:03:19;;;;;;;4.75;3.40;;;23.10;99.90;;;;;;4844447;29;20045;-32
2022/07/25 03:05:44;;;;;;;7.63;3.92;;;23.10;99.90;;;;;;4843040;29;20483;-38
2022/07/25 03:08:10;;;;;;;4.45;4.05;;;23.00;99.90;;;;;;4828323;29;20675;-36
2022/07/25 03:10:35;;;;;;;4.65;3.60;;;23.00;99.90;;;;;;4833078;29;20029;-35
2022/07/25 03:13:01;;;;;;;4.75;4.20;;;23.00;99.90;;;;;;4828188;29;20486;-32
2022/07/25 03:15:27;;;;;;;6.72;3.88;;;22.90;99.90;;;;;;4841505;29;20057;-37
2022/07/25 03:17:53;;;;;;;6.13;3.78;;;23.00;99.90;;;;;;4842380;29;20042;-40
2022/07/25 03:20:18;;;;;;;8.65;4.07;;;22.90;99.90;;;;;;4843662;29;20033;-34
2022/07/25 03:22:44;;;;;;;6.07;4.53;;;22.90;99.90;;;;;;4839401;29;20498;-36
2022/07/25 03:25:09;;;;;;;6.25;4.80;;;22.90;99.90;;;;;;4840750;29;20048;-43
2022/07/25 03:27:35;;;;;;;5.90;4.05;;;23.00;99.90;;;;;;4846858;29;20486;-35
2022/07/25 03:30:01;;;;;;;4.97;3.92;;;23.00;99.90;;;;;;4854073;29;20013;-44
2022/07/25 03:32:27;;;;;;;5.30;4.40;;;23.00;99.90;;;;;;4847683;29;20029;-39
2022/07/25 03:34:52;;;;;;;7.22;4.55;;;22.90;99.90;;;;;;4845048;29;20068;-36
2022/07/25 03:37:18;;;;;;;5.40;4.30;;;22.90;99.90;;;;;;4855231;29;20041;-38
2022/07/25 03:39:44;;;;;;;4.53;3.90;;;22.90;99.90;;;;;;4855364;29;20112;-35
2022/07/25 03:42:10;;;;;;;5.40;3.63;;;22.90;99.90;;;;;;4834173;29;20505;-37
2022/07/25 03:44:36;;;;;;;5.67;4.13;;;22.90;99.90;;;;;;4848547;29;20036;-34
2022/07/25 03:47:02;;;;;;;3.85;3.45;;;22.90;99.90;;;;;;4852116;29;20407;-33
2022/07/25 03:49:28;;;;;;;4.50;3.63;;;22.90;99.90;;;;;;4844832;29;20088;-37
2022/07/25 03:51:54;;;;;;;3.83;3.45;;;22.90;99.90;;;;;;4844803;29;20057;-35
2022/07/25 03:54:19;;;;;;;11.60;4.28;;;22.90;99.90;;;;;;4844057;29;20034;-38
2022/07/25 03:56:47;;;;;;;5.30;3.80;;;22.90;99.90;;;;;;4853736;29;20486;-37
2022/07/25 03:59:15;;;;;;;5.38;3.55;;;22.90;99.90;;;;;;4848758;29;20026;-39
2022/07/25 04:01:42;;;;;;;5.90;4.30;;;22.90;99.90;;;;;;4842256;29;20084;-38
2022/07/25 04:04:09;;;;;;;5.85;4.68;;;22.90;99.90;;;;;;4842816;29;20069;-38
2022/07/25 04:06:35;;;;;;;7.87;4.53;;;22.90;99.90;;;;;;4855623;29;20602;-59
2022/07/25 04:09:01;;;;;;;6.13;5.22;;;22.90;99.90;;;;;;4857763;29;20090;-38
2022/07/25 04:11:28;;;;;;;11.63;4.35;;;22.90;99.90;;;;;;4852738;29;20490;-37
2022/07/25 04:13:54;;;;;;;5.00;4.35;;;22.90;99.90;;;;;;4845513;29;20029;-38
2022/07/25 04:16:20;;;;;;;6.28;4.78;;;22.90;99.90;;;;;;4831646;29;20041;-35
2022/07/25 04:18:45;;;;;;;6.07;4.35;;;22.90;99.90;;;;;;4847658;29;20041;-34
2022/07/25 04:21:11;;;;;;;4.55;4.05;;;22.90;99.90;;;;;;4830450;29;20539;-36
2022/07/25 04:23:37;;;;;;;6.43;3.95;;;22.90;99.90;;;;;;4846727;29;20034;-35
2022/07/25 04:26:03;;;;;;;6.93;4.85;;;22.90;99.90;;;;;;4846503;29;20030;-39
2022/07/25 04:28:28;;;;;;;9.20;4.50;;;22.90;99.90;;;;;;4852294;29;20157;-36
2022/07/25 04:30:54;;;;;;;6.25;4.47;;;23.00;99.90;;;;;;4848151;29;20030;-36
2022/07/25 04:33:20;;;;;;;6.28;5.05;;;23.00;99.90;;;;;;4847741;29;20113;-29
2022/07/25 04:35:46;;;;;;;6.30;4.25;;;23.00;99.90;;;;;;4848729;29;20047;-35
2022/07/25 04:38:12;;;;;;;4.93;4.43;;;23.00;99.90;;;;;;4847555;29;20577;-37
2022/07/25 04:40:38;;;;;;;7.38;4.80;;;23.00;99.90;;;;;;4834744;29;20148;-32
2022/07/25 04:43:04;;;;;;;6.47;5.03;;;23.00;99.90;;;;;;4849250;29;20061;-36
2022/07/25 04:45:30;;;;;;;5.85;5.25;;;23.00;99.90;;;;;;4851860;29;20025;-36
2022/07/25 04:48:15;;;;;;;8.50;5.75;;;23.00;99.90;;;;;;4848164;29;20600;-34
2022/07/25 04:50:40;;;;;;;7.82;5.28;;;23.00;99.90;;;;;;4845029;29;20124;-30
2022/07/25 04:53:06;;;;;;;6.15;5.10;;;22.90;99.90;;;;;;4849811;29;20562;-35
2022/07/25 04:55:32;;;;;;;6.05;5.05;;;22.90;99.90;;;;;;4846027;29;20041;-32
2022/07/25 04:57:59;;;;;;;10.60;5.05;;;22.90;99.90;;;;;;4851783;29;20029;-37
2022/07/25 05:00:25;;;;;;;8.68;5.05;;;22.90;99.90;;;;;;4842257;29;20647;-34
2022/07/25 05:02:50;;;;;;;10.00;5.75;;;22.80;99.90;;;;;;4842326;29;20357;-38
2022/07/25 05:05:16;;;;;;;6.35;5.00;;;22.80;99.90;;;;;;4840868;29;20034;-36
2022/07/25 05:07:41;;;;;;;6.50;4.40;;;22.80;99.90;;;;;;4847863;29;20066;-34
2022/07/25 05:10:07;;;;;;;8.82;5.82;;;22.70;99.90;;;;;;4847797;29;20091;-39
2022/07/25 05:12:33;;;;;;;9.00;5.47;;;22.80;99.90;;;;;;4836728;29;20037;-36
2022/07/25 05:14:59;;;;;;;13.75;6.72;;;22.80;99.90;;;;;;4817197;29;20060;-35
2022/07/25 05:17:24;;;;;;;7.60;5.65;;;22.80;99.90;;;;;;4832810;29;20029;-43
2022/07/25 05:19:50;;;;;;;12.52;6.72;;;22.80;99.90;;;;;;4838724;29;20550;-32
2022/07/25 05:22:15;;;;;;;5.93;5.32;;;22.80;99.90;;;;;;4841320;29;20030;-32
2022/07/25 05:24:41;;;;;;;12.25;5.72;;;22.90;99.90;;;;;;4834722;29;20059;-33
2022/07/25 05:27:07;;;;;;;9.82;7.05;;;22.80;99.90;;;;;;4836112;29;20030;-32
2022/07/25 05:29:33;;;;;;;12.63;6.80;;;22.90;99.90;;;;;;4837934;29;20038;-38
2022/07/25 05:31:58;;;;;;;8.88;6.32;;;22.90;99.90;;;;;;4834975;29;20032;-33
2022/07/25 05:34:24;;;;;;;9.93;6.35;;;22.90;99.90;;;;;;4840079;29;20470;-37
2022/07/25 05:36:49;;;;;;;10.27;7.20;;;23.00;99.90;;;;;;4837902;29;20442;-36
2022/07/25 05:39:15;;;;;;;9.43;7.20;;;23.00;99.90;;;;;;4838067;29;20980;-36
2022/07/25 05:41:41;;;;;;;18.08;6.85;;;23.10;99.90;;;;;;4843683;29;20034;-34
2022/07/25 05:44:06;;;;;;;13.98;7.13;;;23.20;99.90;;;;;;4845449;29;20042;-32
2022/07/25 05:46:50;;;;;;;8.60;6.38;;;23.20;99.90;;;;;;4840280;29;20091;-43
2022/07/25 05:49:16;;;;;;;10.93;6.28;;;23.20;99.90;;;;;;4838081;29;20349;-34
2022/07/25 05:52:01;;;;;;;7.03;5.50;;;23.30;99.90;;;;;;4849343;29;20044;-36
2022/07/25 05:54:26;;;;;;;7.22;5.97;;;23.30;99.90;;;;;;4831920;29;20162;-46
2022/07/25 05:56:52;;;;;;;8.73;5.43;;;23.30;99.90;;;;;;4847088;29;20123;-34
2022/07/25 05:59:17;;;;;;;7.70;6.20;;;23.30;99.90;;;;;;4842037;29;20491;-39
2022/07/25 06:01:43;;;;;;;8.75;5.40;;;23.30;99.90;;;;;;4853960;29;20037;-39
2022/07/25 06:04:09;;;;;;;10.10;5.90;;;23.30;99.90;;;;;;4848107;29;20037;-33
2022/07/25 06:06:34;;;;;;;11.65;4.38;;;23.30;99.90;;;;;;4847888;29;20037;-37
2022/07/25 06:09:00;;;;;;;6.65;4.60;;;23.40;99.90;;;;;;4843120;29;20256;-38
2022/07/25 06:11:27;;;;;;;5.38;4.40;;;23.50;99.90;;;;;;4849951;29;20029;-38
2022/07/25 06:13:53;;;;;;;8.00;4.03;;;23.60;99.90;;;;;;4852640;29;20025;-37
2022/07/25 06:16:18;;;;;;;6.80;3.35;;;23.60;99.90;;;;;;4841964;29;20517;-36
2022/07/25 06:18:44;;;;;;;4.57;3.40;;;23.70;99.90;;;;;;4840106;29;20026;-36
2022/07/25 06:21:10;;;;;;;8.20;3.42;;;23.80;99.90;;;;;;4838116;29;20268;-45
2022/07/25 06:23:35;;;;;;;6.15;3.35;;;23.90;99.90;;;;;;4845117;29;20033;-38
2022/07/25 06:26:01;;;;;;;6.35;3.05;;;24.00;99.90;;;;;;4846744;29;20037;-36
2022/07/25 06:28:26;;;;;;;7.28;2.83;;;24.10;99.90;;;;;;4852852;29;20040;-37
2022/07/25 06:30:52;;;;;;;3.80;2.65;;;24.50;99.90;;;;;;4843294;29;20085;-39
2022/07/25 06:33:18;;;;;;;3.03;2.35;;;25.10;99.90;;;;;;4852061;29;20034;-39
2022/07/25 06:35:44;;;;;;;6.78;2.40;;;25.40;99.90;;;;;;4840113;29;20049;-37
2022/07/25 06:38:09;;;;;;;4.57;2.08;;;25.40;99.90;;;;;;4852258;29;20060;-39
2022/07/25 06:40:35;;;;;;;2.53;1.80;;;25.10;99.90;;;;;;4847792;29;20065;-34
2022/07/25 06:43:01;;;;;;;3.97;1.90;;;24.80;99.90;;;;;;4849124;29;20026;-38
2022/07/25 06:45:26;;;;;;;5.50;2.35;;;24.70;99.90;;;;;;4843766;29;20126;-36
2022/07/25 06:47:52;;;;;;;3.10;1.80;;;25.10;99.90;;;;;;4853660;29;20034;-36
2022/07/25 06:50:18;;;;;;;2.00;1.90;;;25.30;99.90;;;;;;4849051;29;20026;-36
2022/07/25 06:52:45;;;;;;;7.10;2.13;;;25.00;99.90;;;;;;4846475;29;20104;-39
2022/07/25 06:55:12;;;;;;;1.87;1.77;;;24.60;99.90;;;;;;4846076;29;20037;-37
2022/07/25 06:57:38;;;;;;;3.20;1.85;;;24.40;99.90;;;;;;4852659;29;20406;-38
2022/07/25 07:00:08;;;;;;;1.50;1.40;;;24.20;99.90;;;;;;4856522;29;20033;-40
2022/07/25 07:02:34;;;;;;;2.30;1.88;;;24.00;99.90;;;;;;4849503;29;20036;-58
2022/07/25 07:05:00;;;;;;;3.13;1.13;;;24.00;99.90;;;;;;4854791;29;20494;-39
2022/07/25 07:07:26;;;;;;;1.70;1.45;;;24.00;99.90;;;;;;4848735;29;20041;-34
2022/07/25 07:09:52;;;;;;;2.30;1.30;;;24.00;99.90;;;;;;4848419;29;20321;-38
2022/07/25 07:12:17;;;;;;;5.45;1.77;;;24.00;99.90;;;;;;4840266;29;20979;-38
2022/07/25 07:14:44;;;;;;;2.50;1.40;;;24.00;99.90;;;;;;4838728;29;20498;-35
2022/07/25 07:17:09;;;;;;;1.60;1.38;;;23.90;99.90;;;;;;4845770;29;20037;-45
2022/07/25 07:19:37;;;;;;;1.90;1.23;;;23.90;99.90;;;;;;4851282;29;20037;-36
2022/07/25 07:22:03;;;;;;;4.03;1.27;;;23.90;99.90;;;;;;4848703;29;20677;-38
2022/07/25 07:24:28;;;;;;;2.10;1.20;;;23.80;99.90;;;;;;4852156;29;20140;-34
2022/07/25 07:26:54;;;;;;;1.67;1.58;;;23.80;99.90;;;;;;4848052;29;20029;-38
2022/07/25 07:29:20;;;;;;;1.92;1.15;;;23.80;99.90;;;;;;4847438;29;20076;-38
2022/07/25 07:31:46;;;;;;;1.23;0.98;;;23.80;99.90;;;;;;4850741;29;20022;-37
2022/07/25 07:34:12;;;;;;;5.47;1.10;;;23.80;99.90;;;;;;4850203;29;20553;-36
2022/07/25 07:36:38;;;;;;;7.28;1.67;;;23.90;99.90;;;;;;4847569;29;20026;-37
2022/07/25 07:39:03;;;;;;;2.78;1.45;;;23.90;99.90;;;;;;4851160;29;20422;-38
2022/07/25 07:41:29;;;;;;;2.40;1.30;;;23.90;99.90;;;;;;4840420;29;20140;-35
2022/07/25 07:43:55;;;;;;;2.88;0.90;;;24.00;99.90;;;;;;4850463;29;20573;-52
2022/07/25 07:46:20;;;;;;;3.33;1.38;;;24.10;99.90;;;;;;4851814;29;20041;-37
2022/07/25 07:48:46;;;;;;;1.70;1.05;;;24.20;99.90;;;;;;4837513;29;20170;-33
2022/07/25 07:51:12;;;;;;;4.35;1.05;;;24.30;99.90;;;;;;4844890;29;20037;-37
2022/07/25 07:56:21;;;;;;;1.55;1.27;;;24.50;99.90;;;;;;4852203;29;20422;-37
2022/07/25 07:58:47;;;;;;;0.70;0.70;;;24.50;99.90;;;;;;4852587;29;20033;-38
2022/07/25 08:01:12;;;;;;;1.15;1.00;;;24.60;99.90;;;;;;4847725;29;20037;-38
2022/07/25 08:03:38;;;;;;;4.50;1.13;;;24.60;99.90;;;;;;4828787;29;20402;-36
2022/07/25 08:06:04;;;;;;;3.22;0.90;;;24.60;99.90;;;;;;4850640;29;20110;-37
2022/07/25 08:08:31;;;;;;;2.45;0.68;;;24.50;99.90;;;;;;4850106;29;20913;-37
2022/07/25 08:10:59;;;;;;;3.38;0.93;;;24.40;99.90;;;;;;4831349;29;20120;-37
2022/07/25 08:13:28;;;;;;;2.95;1.08;;;24.40;99.90;;;;;;4849211;29;20524;-38
2022/07/25 08:15:57;;;;;;;8.52;1.15;;;24.30;99.90;;;;;;4854290;29;20451;-39
2022/07/25 08:18:24;;;;;;;2.45;0.98;;;24.20;99.90;;;;;;4842146;29;20551;-40
2022/07/25 08:20:50;;;;;;;3.35;1.48;;;24.30;99.90;;;;;;4846259;29;20057;-35
2022/07/25 08:23:17;;;;;;;3.40;1.10;;;24.60;99.90;;;;;;4838689;29;20488;-39
2022/07/25 08:25:44;;;;;;;2.92;1.00;;;25.00;99.90;;;;;;4839089;29;20033;-34
2022/07/25 08:28:10;;;;;;;9.27;1.38;;;25.20;99.90;;;;;;4840963;29;20050;-41
2022/07/25 08:30:37;;;;;;;9.70;1.15;;;25.30;99.90;;;;;;4839028;29;20112;-39
2022/07/25 08:33:06;;;;;;;14.02;1.52;;;25.40;99.90;;;;;;4844922;29;20026;-56
2022/07/25 08:35:33;;;;;;;2.50;0.95;;;25.50;99.90;;;;;;4848462;29;20553;-36
2022/07/25 08:38:00;;;;;;;3.60;1.73;;;25.50;99.90;;;;;;4841113;29;20053;-38
2022/07/25 08:40:28;;;;;;;1.92;1.00;;;25.40;99.90;;;;;;4837612;29;21857;-40
2022/07/25 08:42:55;;;;;;;3.88;0.93;;;25.40;99.90;;;;;;4844621;29;20098;-38
2022/07/25 08:45:22;;;;;;;6.15;1.02;;;25.30;99.90;;;;;;4841601;29;20042;-35
2022/07/25 08:47:49;;;;;;;9.60;1.55;;;25.40;99.90;;;;;;4840688;29;20046;-43
2022/07/25 08:50:18;;;;;;;2.95;1.27;;;25.40;99.90;;;;;;4849729;29;20108;-39
2022/07/25 08:52:48;;;;;;;3.50;1.20;;;25.40;99.90;;;;;;4842860;29;20585;-34
2022/07/25 08:55:18;;;;;;;5.47;1.33;;;25.40;99.90;;;;;;4849678;29;20243;-38
2022/07/25 08:57:45;;;;;;;5.68;1.15;;;25.50;99.90;;;;;;4841454;29;20546;-31
2022/07/25 09:00:15;;;;;;;3.42;1.20;;;25.30;99.90;;;;;;4838336;29;20042;-35
2022/07/25 09:02:40;;;;;;;1.35;1.20;;;25.20;99.90;;;;;;4839777;29;20050;-31
2022/07/25 09:05:07;;;;;;;1.95;1.08;;;25.00;99.90;;;;;;4839575;29;20029;-33
2022/07/25 09:07:39;;;;;;;2.40;1.00;;;24.80;99.90;;;;;;4847820;29;20034;-31
2022/07/25 09:10:14;;;;;;;3.55;1.75;;;24.70;99.90;;;;;;4849933;29;20407;-39
2022/07/25 09:12:41;;;;;;;8.55;1.48;;;24.60;99.90;;;;;;4845399;29;20670;-29
2022/07/25 09:15:08;;;;;;;4.00;1.30;;;24.60;99.90;;;;;;4844398;29;20065;-38
2022/07/25 09:17:36;;;;;;;2.90;0.80;;;24.50;99.90;;;;;;4844629;29;20173;-34
2022/07/25 09:20:01;;;;;;;12.48;1.98;;;24.50;99.90;;;;;;4847363;29;20387;-37
2022/07/25 09:22:29;;;;;;;3.53;1.00;;;24.70;99.90;;;;;;4849557;29;20025;-33
2022/07/25 09:24:54;;;;;;;;;;;24.90;99.90;;;;;;4843285;29;20034;-38
2022/07/25 09:27:20;;;;;;;1.45;0.90;;;25.10;99.90;;;;;;4850994;29;19908;-44
2022/07/25 09:29:45;;;;;;;2.92;1.50;;;25.30;99.90;;;;;;4849636;29;20037;-39
2022/07/25 09:32:19;;;;;;;6.32;1.20;;;25.50;99.90;;;;;;4837532;29;20029;-34
2022/07/25 09:34:48;;;;;;;5.68;1.17;;;25.80;99.90;;;;;;4839685;29;20029;-40
2022/07/25 09:37:17;;;;;;;2.67;1.35;;;26.20;99.90;;;;;;4837216;29;20066;-33
2022/07/25 09:39:49;;;;;;;2.25;1.00;;;26.80;99.90;;;;;;4846977;29;20026;-32
2022/07/25 09:42:35;;;;;;;2.63;1.00;;;27.20;99.90;;;;;;4849920;29;20117;-36
2022/07/25 09:45:05;;;;;;;1.45;0.93;;;27.20;99.50;;;;;;4848756;29;20034;-40
2022/07/25 09:47:35;;;;;;;3.85;1.17;;;27.20;99.30;;;;;;4847581;29;20487;-37
2022/07/25 09:50:01;;;;;;;2.38;0.90;;;27.20;99.10;;;;;;4821356;29;20032;-36
2022/07/25 09:52:27;;;;;;;3.10;1.27;;;27.00;99.50;;;;;;4842392;29;20496;-31
2022/07/25 09:54:56;;;;;;;2.85;0.80;;;26.60;99.60;;;;;;4847935;29;20274;-37
2022/07/25 09:57:24;;;;;;;1.00;0.88;;;26.30;99.90;;;;;;4828289;29;20076;-38
2022/07/25 09:59:50;;;;;;;4.03;1.08;;;26.00;99.90;;;;;;4846243;29;20141;-39
2022/07/25 10:02:43;;;;;;;1.42;0.77;;;25.70;99.90;;;;;;4839621;29;20025;-33
2022/07/25 10:05:18;;;;;;;2.53;1.05;;;25.50;99.90;;;;;;4834623;29;20030;-34
2022/07/25 10:07:49;;;;;;;3.10;0.70;;;25.80;99.90;;;;;;4843511;29;21969;-37
2022/07/25 10:10:25;;;;;;;2.35;0.88;;;26.10;99.90;;;;;;4838971;29;20038;-33
2022/07/25 10:13:09;;;;;;;3.30;0.80;;;26.10;99.90;;;;;;4845346;29;20033;-36
2022/07/25 10:15:50;;;;;;;4.00;1.10;;;25.90;99.90;;;;;;4853178;29;20513;-39
2022/07/25 10:18:20;;;;;;;2.17;0.90;;;25.90;99.90;;;;;;4845408;29;20404;-38
2022/07/25 10:20:47;;;;;;;1.67;1.05;;;25.80;99.90;;;;;;4852191;29;20044;-37
2022/07/25 10:23:18;;;;;;;2.40;1.00;;;25.70;99.90;;;;;;4851024;29;20815;-37
2022/07/25 10:25:44;;;;;;;3.55;1.48;;;25.70;99.90;;;;;;4843875;29;20033;-34
2022/07/25 10:28:11;;;;;;;4.07;1.33;;;25.60;99.90;;;;;;4849182;29;20038;-35
2022/07/25 10:30:39;;;;;;;5.53;1.35;;;25.40;99.90;;;;;;4852891;29;20475;-38
2022/07/25 10:33:14;;;;;;;1.92;1.35;;;25.30;99.90;;;;;;4847483;29;20048;-35
2022/07/25 10:35:40;;;;;;;6.32;1.58;;;25.00;99.90;;;;;;4847830;29;20022;-40
2022/07/25 10:38:06;;;;;;;5.65;1.75;;;24.80;99.90;;;;;;4851929;29;20459;-38
2022/07/25 10:40:38;;;;;;;4.13;1.63;;;24.80;99.90;;;;;;4853043;29;20069;-39
2022/07/25 10:43:18;;;;;;;14.63;1.67;;;24.90;99.90;;;;;;4842453;29;20459;-38
2022/07/25 10:45:50;;;;;;;1.25;1.15;;;24.90;99.90;;;;;;4853389;29;20486;-37
2022/07/25 10:48:25;;;;;;;6.10;1.55;;;25.10;99.90;;;;;;4849744;29;20037;-33
2022/07/25 10:51:06;;;;;;;6.50;1.80;;;25.30;99.90;;;;;;4847097;29;20034;-38
2022/07/25 10:53:34;;;;;;;6.07;1.80;;;25.30;99.90;;;;;;4842534;29;20039;-33
2022/07/25 10:56:14;;;;;;;9.70;2.00;;;25.10;99.90;;;;;;4851312;29;20041;-35
2022/07/25 10:58:43;;;;;;;13.18;1.75;;;25.00;99.90;;;;;;4845537;29;20025;-35
2022/07/25 11:01:09;;;;;;;10.65;1.60;;;24.70;99.90;;;;;;4850313;29;20509;-37
2022/07/25 11:03:35;;;;;;;4.72;1.50;;;24.50;99.90;;;;;;4850253;29;20036;-37
2022/07/25 11:06:00;;;;;;;3.10;1.67;;;24.30;99.90;;;;;;4846615;29;20530;-33
2022/07/25 11:08:33;;;;;;;5.43;1.60;;;24.10;99.90;;;;;;4850115;29;20029;-39
2022/07/25 11:10:59;;;;;;;8.23;1.90;;;24.10;99.90;;;;;;4848669;29;20075;-38
2022/07/25 11:13:25;;;;;;;8.85;1.88;;;24.20;99.90;;;;;;4835681;29;20026;-47
2022/07/25 11:15:54;;;;;;;3.97;1.65;;;24.20;99.90;;;;;;4847288;29;20056;-40
2022/07/25 11:18:30;;;;;;;5.65;1.60;;;24.20;99.90;;;;;;4844684;29;20348;-39
2022/07/25 11:21:00;;;;;;;5.55;1.95;;;24.20;99.90;;;;;;4848448;29;20034;-35
2022/07/25 11:23:26;;;;;;;4.00;1.63;;;24.30;99.90;;;;;;4845891;29;20036;-46
2022/07/25 11:26:02;;;;;;;7.25;1.92;;;24.30;99.90;;;;;;4842193;29;20029;-33
2022/07/25 11:28:39;;;;;;;2.78;1.77;;;24.20;99.90;;;;;;4835098;29;20044;-37
2022/07/25 11:31:05;;;;;;;9.43;2.88;;;24.10;99.90;;;;;;4844857;29;20029;-33
2022/07/25 11:33:31;;;;;;;5.43;1.50;;;23.90;99.90;;;;;;4843847;29;20705;-39
2022/07/25 11:35:58;;;;;;;9.27;1.73;;;23.80;99.90;;;;;;4849886;29;20046;-34
2022/07/25 11:38:25;;;;;;;3.10;1.98;;;23.70;99.90;;;;;;4843724;29;20478;-36
2022/07/25 11:40:51;;;;;;;8.85;1.55;;;23.80;99.90;;;;;;4848203;29;20033;-36
2022/07/25 11:43:21;;;;;;;6.03;2.30;;;23.80;99.90;;;;;;4845754;29;20515;-31
2022/07/25 11:46:00;;;;;;;9.50;1.90;;;23.90;99.90;;;;;;4851401;29;20033;-39
2022/07/25 11:48:39;;;;;;;11.23;2.60;;;24.10;99.90;;;;;;4850938;29;20384;-35
2022/07/25 11:51:14;;;;;;;6.03;1.63;;;24.10;99.90;;;;;;4832984;29;20045;-38
2022/07/25 11:53:45;;;;;;;7.85;1.90;;;24.20;99.90;;;;;;4841256;29;20032;-33
2022/07/25 11:56:19;;;;;;;5.80;2.28;;;24.20;99.90;;;;;;4822772;29;20372;-34
2022/07/25 11:58:58;;;;;;;10.30;1.58;;;24.30;99.90;;;;;;4844280;29;20093;-40
2022/07/25 12:01:24;;;;;;;9.93;1.75;;;24.20;99.90;;;;;;4846704;29;20037;-33
2022/07/25 12:03:51;;;;;;;10.00;1.95;;;24.20;99.90;;;;;;4846136;29;20041;-31
2022/07/25 12:06:16;;;;;;;6.40;1.83;;;24.00;99.90;;;;;;4833116;29;20477;-38
2022/07/25 12:08:42;;;;;;;4.43;1.50;;;23.90;99.90;;;;;;4842483;29;20117;-36
2022/07/25 12:11:19;;;;;;;6.32;2.55;;;23.80;99.90;;;;;;4843957;29;20033;-30
2022/07/25 12:13:46;;;;;;;10.02;1.67;;;24.10;99.90;;;;;;4831592;29;20064;-41
2022/07/25 12:16:12;;;;;;;5.85;1.50;;;24.70;99.90;;;;;;4834153;29;20037;-34
2022/07/25 12:18:38;;;;;;;7.43;1.33;;;25.10;99.90;;;;;;4840014;29;20030;-37
2022/07/25 12:21:04;;;;;;;7.28;1.65;;;25.20;99.30;;;;;;4833988;29;20561;-39
2022/07/25 12:23:29;;;;;;;5.20;1.67;;;25.10;99.30;;;;;;4837509;29;20029;-33
2022/07/25 12:25:55;;;;;;;7.25;1.63;;;24.90;99.90;;;;;;4839863;29;20036;-35
2022/07/25 12:28:21;;;;;;;2.88;1.70;;;24.80;99.40;;;;;;4838123;29;20042;-34
2022/07/25 12:30:47;;;;;;;2.67;1.15;;;24.60;99.20;;;;;;4845588;29;20090;-43
2022/07/25 12:33:16;;;;;;;10.50;1.90;;;24.50;99.30;;;;;;4838915;29;20671;-38
2022/07/25 12:35:42;;;;;;;5.25;1.27;;;24.60;98.90;;;;;;4844886;29;20030;-36
2022/07/25 12:38:09;;;;;;;2.70;1.30;;;24.80;99.00;;;;;;4843371;29;20045;-31
2022/07/25 12:40:36;;;;;;;10.25;1.63;;;24.90;99.50;;;;;;4841862;29;20056;-34
2022/07/25 12:43:02;;;;;;;5.45;1.27;;;25.20;98.00;;;;;;4848957;29;20114;-39
2022/07/25 12:45:28;;;;;;;6.05;1.10;;;25.60;97.60;;;;;;4844238;29;20109;-42
2022/07/25 12:47:54;;;;;;;6.47;1.85;;;25.90;97.50;;;;;;4839958;29;20038;-38